createdAt,value
2023-05-13T00:00:12.264Z,23.20
2023-05-13T00:02:40.523Z,23.70
2023-05-13T00:05:08.295Z,24.50
2023-05-13T00:07:35.662Z,22.70
2023-05-13T00:10:03.023Z,21.60
2023-05-13T00:12:31.550Z,21.90
2023-05-13T00:14:58.844Z,23.10
2023-05-13T00:17:26.235Z,21.80
2023-05-13T00:19:53.624Z,21.60
2023-05-13T00:22:20.978Z,22.50
2023-05-13T00:24:48.314Z,22.20
2023-05-13T00:27:15.596Z,21.40
2023-05-13T00:29:44.421Z,23.50
2023-05-13T00:32:11.775Z,22.90
2023-05-13T00:34:39.273Z,22.40
2023-05-13T00:37:10.530Z,23.10
2023-05-13T00:39:38.544Z,21.30
2023-05-13T00:42:08.309Z,21.40
2023-05-13T00:44:37.034Z,21.40
2023-05-13T00:47:10.408Z,20.60
2023-05-13T00:49:37.499Z,21.10
2023-05-13T00:52:05.573Z,20.90
2023-05-13T00:54:32.944Z,20.50
2023-05-13T00:57:01.034Z,19.40
2023-05-13T00:59:30.521Z,21.10
2023-05-13T01:02:21.114Z,21.30
2023-05-13T01:05:19.491Z,20.80
2023-05-13T01:08:27.216Z,20.10
2023-05-13T01:11:03.227Z,18.40
2023-05-13T01:13:37.269Z,21.50
2023-05-13T01:16:30.547Z,19.90
2023-05-13T01:19:00.044Z,20.40
2023-05-13T01:21:34.691Z,19.90
2023-05-13T01:24:03.019Z,20.40
2023-05-13T01:26:32.174Z,20.70
2023-05-13T01:28:59.709Z,19.50
2023-05-13T01:31:32.642Z,20.50
2023-05-13T01:36:28.914Z,18.20
2023-05-13T01:38:56.251Z,19.00
2023-05-13T01:41:24.757Z,22.10
2023-05-13T01:43:52.708Z,21.00
2023-05-13T01:46:19.857Z,19.70
2023-05-13T01:48:51.083Z,20.20
2023-05-13T01:51:21.956Z,19.20
2023-05-13T01:53:50.654Z,19.10
2023-05-13T01:56:19.653Z,19.90
